Time;durP1;ratioP1;P1;durP2;ratioP2;P2;SDS_P1;SDS_P2;PMS_P1;PMS_P2;Temp;Humidity;BMP_temperature;BMP_pressure;BME280_temperature;BME280_humidity;BME280_pressure;Samples;Min_cycle;Max_cycle;Signal;HPM_P1;HPM_P2
2024/01/11 00:00:37;;;;;;;6.20;5.80;;;18.90;34.20;;;;;;5014161;28;20883;-83
2024/01/11 00:03:03;;;;;;;6.63;6.13;;;18.90;34.20;;;;;;5012152;28;20215;-84
2024/01/11 00:05:28;;;;;;;6.67;6.07;;;18.90;34.20;;;;;;5013366;28;20230;-84
2024/01/11 00:07:54;;;;;;;6.30;5.90;;;18.90;34.20;;;;;;5012927;28;20846;-82
2024/01/11 00:10:20;;;;;;;6.77;5.90;;;18.90;34.20;;;;;;5011477;28;20321;-83
2024/01/11 00:12:46;;;;;;;6.60;6.10;;;18.90;34.20;;;;;;5013423;28;20251;-84
2024/01/11 00:15:12;;;;;;;6.90;6.30;;;18.90;34.10;;;;;;5010106;28;20365;-84
2024/01/11 00:17:38;;;;;;;5.83;5.43;;;18.80;34.10;;;;;;5013968;28;20244;-83
2024/01/11 00:20:04;;;;;;;6.50;6.00;;;18.90;34.10;;;;;;5012976;28;20863;-84
2024/01/11 00:22:29;;;;;;;6.80;6.20;;;18.80;34.10;;;;;;5010308;28;20926;-85
2024/01/11 00:24:55;;;;;;;6.50;6.00;;;18.90;34.20;;;;;;5014456;28;20578;-84
2024/01/11 00:27:20;;;;;;;6.77;6.17;;;18.90;34.10;;;;;;4999352;28;20247;-83
2024/01/11 00:29:46;;;;;;;6.40;5.80;;;18.80;34.10;;;;;;5013298;28;20688;-84
2024/01/11 00:32:11;;;;;;;7.00;6.40;;;18.90;34.10;;;;;;5014498;28;20226;-83
2024/01/11 00:34:37;;;;;;;6.30;5.80;;;18.80;34.00;;;;;;4996218;28;20226;-83
2024/01/11 00:37:03;;;;;;;6.40;5.93;;;18.80;34.10;;;;;;5013400;28;20231;-85
2024/01/11 00:39:29;;;;;;;6.80;6.20;;;18.80;34.10;;;;;;5014483;28;20960;-83
2024/01/11 00:41:55;;;;;;;6.47;5.37;;;18.90;34.00;;;;;;5013153;28;20221;-83
2024/01/11 00:44:20;;;;;;;7.70;7.00;;;18.90;34.10;;;;;;5012608;28;20234;-83
2024/01/11 00:46:46;;;;;;;6.40;5.80;;;18.80;34.00;;;;;;5000779;28;20227;-83
2024/01/11 00:49:11;;;;;;;6.00;5.60;;;18.80;34.00;;;;;;5018371;28;20218;-83
2024/01/11 00:51:37;;;;;;;6.53;6.10;;;18.90;34.10;;;;;;5016642;28;20230;-84
2024/01/11 00:54:02;;;;;;;7.20;6.60;;;18.80;34.00;;;;;;5015805;28;20219;-83
2024/01/11 00:56:28;;;;;;;5.90;5.50;;;18.80;34.10;;;;;;5014133;28;20222;-83
2024/01/11 00:58:53;;;;;;;6.07;5.67;;;18.90;34.10;;;;;;5013148;28;20247;-83
2024/01/11 01:01:19;;;;;;;6.10;5.70;;;18.80;34.10;;;;;;5014846;28;20227;-84
2024/01/11 01:03:45;;;;;;;7.10;6.50;;;18.80;34.00;;;;;;5011409;28;20257;-84
2024/01/11 01:06:11;;;;;;;6.20;5.60;;;18.80;34.10;;;;;;5023964;28;20231;-85
2024/01/11 01:08:36;;;;;;;6.63;6.13;;;18.90;34.10;;;;;;5012545;28;20223;-83
2024/01/11 01:11:02;;;;;;;6.23;5.83;;;18.80;34.10;;;;;;5014347;28;20222;-82
2024/01/11 01:13:27;;;;;;;6.77;6.20;;;18.80;34.00;;;;;;5012281;28;20214;-83
2024/01/11 01:15:53;;;;;;;6.47;5.87;;;18.80;34.00;;;;;;5012117;28;20222;-84
2024/01/11 01:18:18;;;;;;;5.70;5.30;;;18.80;34.00;;;;;;4998796;28;21784;-84
2024/01/11 01:20:44;;;;;;;6.80;6.30;;;18.80;34.00;;;;;;4995022;28;20592;-83
2024/01/11 01:23:09;;;;;;;6.37;5.97;;;18.80;34.00;;;;;;5012431;28;20231;-83
2024/01/11 01:25:35;;;;;;;6.40;5.87;;;18.80;34.00;;;;;;4992851;28;20315;-82
2024/01/11 01:28:01;;;;;;;6.17;5.70;;;18.80;34.00;;;;;;5014578;28;20573;-84
2024/01/11 01:30:27;;;;;;;6.30;5.77;;;18.80;34.00;;;;;;5022187;28;20215;-84
2024/01/11 01:32:53;;;;;;;6.23;5.80;;;18.80;34.00;;;;;;5024830;28;20221;-83
2024/01/11 01:35:18;;;;;;;5.60;5.20;;;18.80;34.00;;;;;;5024518;28;20407;-83
2024/01/11 01:37:44;;;;;;;5.93;5.47;;;18.80;34.00;;;;;;5020380;28;20457;-83
2024/01/11 01:40:11;;;;;;;6.27;5.77;;;18.80;34.00;;;;;;5017721;28;20242;-84
2024/01/11 01:42:44;;;;;;;5.80;5.37;;;18.80;34.00;;;;;;5019650;28;20218;-83
2024/01/11 01:45:10;;;;;;;6.10;5.60;;;18.80;34.00;;;;;;5016448;28;20578;-84
2024/01/11 01:47:39;;;;;;;6.13;5.63;;;18.80;34.00;;;;;;5021235;28;21058;-84
2024/01/11 01:50:05;;;;;;;5.80;5.40;;;18.80;34.00;;;;;;5020520;28;20222;-84
2024/01/11 01:52:32;;;;;;;6.40;5.77;;;18.80;34.00;;;;;;5021074;28;20542;-84
2024/01/11 01:54:59;;;;;;;5.67;5.17;;;18.80;33.90;;;;;;5021971;28;20577;-83
2024/01/11 01:57:25;;;;;;;5.93;5.43;;;18.80;34.00;;;;;;5024835;28;20444;-84
2024/01/11 01:59:52;;;;;;;5.97;5.37;;;18.80;33.90;;;;;;5000147;28;20415;-83
2024/01/11 02:02:19;;;;;;;6.20;5.80;;;18.80;34.00;;;;;;5023484;28;20448;-82
2024/01/11 02:04:45;;;;;;;6.17;5.67;;;18.80;33.90;;;;;;5019053;28;20456;-83
2024/01/11 02:07:11;;;;;;;5.97;5.57;;;18.80;33.90;;;;;;4974759;28;20458;-85
2024/01/11 02:09:37;;;;;;;6.47;5.93;;;18.80;33.90;;;;;;5017554;28;20231;-84
2024/01/11 02:12:03;;;;;;;6.30;5.80;;;18.80;34.00;;;;;;4995194;28;20446;-83
2024/01/11 02:14:29;;;;;;;6.80;6.30;;;18.80;33.80;;;;;;5015725;28;20223;-83
2024/01/11 02:16:54;;;;;;;6.10;5.70;;;18.80;33.80;;;;;;5017082;28;20490;-84
2024/01/11 02:19:20;;;;;;;7.00;6.03;;;18.80;33.80;;;;;;5017510;28;20231;-85
2024/01/11 02:21:48;;;;;;;6.57;5.80;;;18.80;34.00;;;;;;5019319;28;20226;-83
2024/01/11 02:24:13;;;;;;;5.90;5.30;;;18.80;33.90;;;;;;5021072;28;20476;-83
2024/01/11 02:27:02;;;;;;;6.00;5.60;;;18.80;33.80;;;;;;5020179;28;20469;-83
2024/01/11 02:29:28;;;;;;;6.73;6.20;;;18.80;33.90;;;;;;5022300;28;20223;-84
2024/01/11 02:31:55;;;;;;;5.77;5.30;;;18.80;33.90;;;;;;4998508;28;20461;-84
2024/01/11 02:34:23;;;;;;;5.80;5.40;;;18.80;34.00;;;;;;5017801;28;20442;-83
2024/01/11 02:36:49;;;;;;;5.70;5.30;;;18.80;33.90;;;;;;5018343;28;20539;-83
2024/01/11 02:39:18;;;;;;;6.30;5.70;;;18.80;33.90;;;;;;5019390;28;20452;-83
2024/01/11 02:41:44;;;;;;;6.97;6.37;;;18.80;33.90;;;;;;5014962;28;20552;-84
2024/01/11 02:44:10;;;;;;;6.03;5.63;;;18.80;33.90;;;;;;5015953;28;20454;-84
2024/01/11 02:46:35;;;;;;;7.13;6.53;;;18.80;33.90;;;;;;5000128;28;20209;-84
2024/01/11 02:49:01;;;;;;;6.63;6.13;;;18.80;33.90;;;;;;5014577;28;20266;-83
2024/01/11 02:51:27;;;;;;;5.53;5.23;;;18.80;33.90;;;;;;4999670;28;20693;-84
2024/01/11 02:53:52;;;;;;;7.03;6.43;;;18.80;33.90;;;;;;4998514;28;20214;-84
2024/01/11 02:56:18;;;;;;;6.67;6.13;;;18.80;33.80;;;;;;5019057;28;20218;-84
2024/01/11 02:58:43;;;;;;;5.40;5.00;;;18.80;33.90;;;;;;5013912;28;20225;-83
2024/01/11 03:01:09;;;;;;;6.30;5.80;;;18.80;33.90;;;;;;4988696;28;20258;-84
2024/01/11 03:03:35;;;;;;;6.30;5.90;;;18.80;33.80;;;;;;5016068;28;20223;-84
2024/01/11 03:06:01;;;;;;;6.93;6.33;;;18.80;33.90;;;;;;5014831;28;21237;-84
2024/01/11 03:08:26;;;;;;;5.60;5.20;;;18.80;33.80;;;;;;5015761;28;20483;-84
2024/01/11 03:10:52;;;;;;;5.90;5.40;;;18.80;33.80;;;;;;5015729;28;20260;-83
2024/01/11 03:13:17;;;;;;;6.40;5.80;;;18.80;33.80;;;;;;4999503;28;20691;-84
2024/01/11 03:15:43;;;;;;;6.37;5.97;;;18.80;33.80;;;;;;5006396;28;20373;-83
2024/01/11 03:18:09;;;;;;;7.07;6.37;;;18.80;33.80;;;;;;5015751;28;21914;-82
2024/01/11 03:20:35;;;;;;;6.47;6.00;;;18.80;33.80;;;;;;5016841;28;20500;-83
2024/01/11 03:23:00;;;;;;;6.03;5.47;;;18.80;33.80;;;;;;5015100;28;21394;-83
2024/01/11 03:25:26;;;;;;;5.87;5.37;;;18.80;33.80;;;;;;5014699;28;20622;-83
2024/01/11 03:27:51;;;;;;;5.70;5.30;;;18.80;33.90;;;;;;5015527;28;20314;-83
2024/01/11 03:30:17;;;;;;;6.80;6.20;;;18.80;33.90;;;;;;5014516;28;20967;-83
2024/01/11 03:32:43;;;;;;;5.30;4.97;;;18.80;33.90;;;;;;5012539;28;20223;-83
2024/01/11 03:35:08;;;;;;;5.07;4.77;;;18.80;33.90;;;;;;5023803;28;20971;-85
2024/01/11 03:37:35;;;;;;;6.83;6.23;;;18.80;34.00;;;;;;5014887;28;20781;-83
2024/01/11 03:40:02;;;;;;;6.17;5.53;;;18.80;34.00;;;;;;5013042;28;20218;-83
2024/01/11 03:42:27;;;;;;;6.70;6.10;;;18.80;34.10;;;;;;5011805;28;20454;-84
2024/01/11 03:44:53;;;;;;;5.83;5.40;;;18.80;34.00;;;;;;4996932;28;20479;-83
2024/01/11 03:47:19;;;;;;;6.30;5.80;;;18.80;34.00;;;;;;5011894;28;20218;-83
2024/01/11 03:49:44;;;;;;;5.73;5.33;;;18.80;34.00;;;;;;4998706;28;20234;-83
2024/01/11 03:52:09;;;;;;;5.67;5.27;;;18.80;34.00;;;;;;5011817;28;20237;-84
2024/01/11 03:54:35;;;;;;;5.70;5.30;;;18.80;34.10;;;;;;4997963;28;20226;-84
2024/01/11 03:57:01;;;;;;;5.97;5.57;;;18.80;34.10;;;;;;4993845;28;20349;-84
2024/01/11 03:59:27;;;;;;;6.07;5.57;;;18.80;34.10;;;;;;4994611;28;20233;-83
2024/01/11 04:01:52;;;;;;;6.67;5.97;;;18.80;34.10;;;;;;5008039;28;20214;-83
2024/01/11 04:04:18;;;;;;;5.90;5.50;;;18.80;34.20;;;;;;5013798;28;20222;-83
2024/01/11 04:06:44;;;;;;;5.67;5.27;;;18.80;34.20;;;;;;5011638;28;20995;-83
2024/01/11 04:09:10;;;;;;;5.80;5.40;;;18.80;35.00;;;;;;5013784;28;23415;-83
2024/01/11 04:11:36;;;;;;;6.47;5.87;;;18.80;34.20;;;;;;5008671;28;20857;-84
2024/01/11 04:14:02;;;;;;;6.80;6.30;;;18.80;34.20;;;;;;5009868;28;20298;-83
2024/01/11 04:16:28;;;;;;;7.23;6.53;;;18.80;34.20;;;;;;5008683;28;20218;-83
2024/01/11 04:18:53;;;;;;;5.60;5.23;;;18.80;34.20;;;;;;5010881;28;20555;-83
2024/01/11 04:21:29;;;;;;;6.30;5.70;;;18.80;34.20;;;;;;5011299;28;20255;-83
2024/01/11 04:23:58;;;;;;;7.53;6.83;;;18.80;34.20;;;;;;4992194;28;20277;-83
2024/01/11 04:26:24;;;;;;;6.10;5.60;;;18.80;34.20;;;;;;5014215;28;20442;-84
2024/01/11 04:28:50;;;;;;;6.43;5.93;;;18.80;34.20;;;;;;5013172;28;20443;-84
2024/01/11 04:31:16;;;;;;;6.20;5.70;;;18.80;34.20;;;;;;5011755;28;20231;-84
2024/01/11 04:33:46;;;;;;;6.23;5.73;;;18.80;34.20;;;;;;5011121;28;20433;-84
2024/01/11 04:36:12;;;;;;;6.20;5.70;;;18.80;34.20;;;;;;5010410;28;20448;-83
2024/01/11 04:38:38;;;;;;;7.27;6.57;;;18.80;34.30;;;;;;5007643;28;21154;-83
2024/01/11 04:41:14;;;;;;;6.77;6.17;;;18.80;34.20;;;;;;4993420;28;21017;-83
2024/01/11 04:43:40;;;;;;;6.53;5.90;;;18.80;34.30;;;;;;5007573;28;20222;-84
2024/01/11 04:46:16;;;;;;;6.17;5.67;;;18.80;34.20;;;;;;5007406;28;20490;-84
2024/01/11 04:48:43;;;;;;;6.57;5.87;;;18.80;34.20;;;;;;4990555;28;20410;-83
2024/01/11 04:51:09;;;;;;;5.80;5.40;;;18.80;34.20;;;;;;5016928;28;20431;-84
2024/01/11 04:53:38;;;;;;;6.40;5.93;;;18.80;34.20;;;;;;5015434;28;20418;-84
2024/01/11 04:56:03;;;;;;;6.93;6.30;;;18.80;34.20;;;;;;5010797;28;20289;-83
2024/01/11 04:58:29;;;;;;;6.80;6.00;;;18.80;34.20;;;;;;5011260;28;21197;-83
2024/01/11 05:00:54;;;;;;;6.03;5.63;;;18.80;34.20;;;;;;4993742;28;20254;-83
2024/01/11 05:03:20;;;;;;;6.20;5.60;;;18.80;34.20;;;;;;4993936;28;20223;-83
2024/01/11 05:05:45;;;;;;;6.70;6.20;;;18.90;34.20;;;;;;4984820;28;20230;-84
2024/01/11 05:08:11;;;;;;;6.70;6.10;;;18.80;34.10;;;;;;5008286;28;20294;-83
2024/01/11 05:10:37;;;;;;;7.60;5.90;;;18.90;34.20;;;;;;4990607;28;20870;-83
2024/01/11 05:13:02;;;;;;;6.53;5.80;;;18.90;34.20;;;;;;5010201;28;20325;-84
2024/01/11 05:15:28;;;;;;;7.33;5.80;;;18.90;34.10;;;;;;5005104;28;20229;-84
2024/01/11 05:17:56;;;;;;;10.10;6.30;;;18.90;34.60;;;;;;5005692;28;20709;-84
2024/01/11 05:20:22;;;;;;;6.60;6.10;;;18.90;34.10;;;;;;5013495;28;20219;-82
2024/01/11 05:22:47;;;;;;;9.00;6.90;;;18.90;34.00;;;;;;5009919;28;20451;-83
2024/01/11 05:25:14;;;;;;;6.53;5.73;;;18.90;33.90;;;;;;5005886;28;20245;-83
2024/01/11 05:27:39;;;;;;;7.00;6.40;;;18.90;33.90;;;;;;4993667;28;20743;-82
2024/01/11 05:30:06;;;;;;;6.80;6.30;;;18.90;33.80;;;;;;5000491;28;20469;-82
2024/01/11 05:32:31;;;;;;;7.03;6.53;;;18.90;33.80;;;;;;4978578;28;20888;-82
2024/01/11 05:34:57;;;;;;;7.70;6.27;;;18.90;33.80;;;;;;4979518;28;20452;-86
2024/01/11 05:37:22;;;;;;;7.07;6.47;;;18.90;33.80;;;;;;5004583;28;20231;-83
2024/01/11 05:39:48;;;;;;;6.57;6.07;;;19.00;33.80;;;;;;5004150;28;20618;-82
2024/01/11 05:42:13;;;;;;;7.70;6.80;;;18.90;33.70;;;;;;5005456;28;20226;-82
2024/01/11 05:44:39;;;;;;;7.20;6.50;;;18.90;33.70;;;;;;4997964;28;20266;-84
2024/01/11 05:47:05;;;;;;;6.13;5.73;;;18.90;33.70;;;;;;5006795;28;20206;-82
2024/01/11 05:49:30;;;;;;;7.13;6.30;;;18.90;33.70;;;;;;5007630;28;20291;-83
2024/01/11 05:51:56;;;;;;;7.10;6.37;;;18.90;33.70;;;;;;5003020;28;20571;-84
2024/01/11 05:54:21;;;;;;;7.23;6.60;;;18.90;33.80;;;;;;5008084;28;20286;-83
2024/01/11 05:56:47;;;;;;;7.53;6.93;;;18.90;33.70;;;;;;5022882;28;20301;-82
2024/01/11 05:59:13;;;;;;;9.53;6.50;;;18.90;33.80;;;;;;5011049;28;20226;-84
2024/01/11 06:01:42;;;;;;;7.23;6.43;;;18.90;33.80;;;;;;5001011;28;20226;-84
2024/01/11 06:04:08;;;;;;;7.10;6.50;;;18.90;33.80;;;;;;5002668;28;20235;-82
2024/01/11 06:06:33;;;;;;;8.73;6.23;;;18.90;33.70;;;;;;5004475;28;20464;-85
2024/01/11 06:08:59;;;;;;;7.37;6.77;;;18.90;33.70;;;;;;4979414;28;20218;-85
2024/01/11 06:11:24;;;;;;;7.47;6.70;;;18.90;33.70;;;;;;5006830;28;20269;-86
2024/01/11 06:13:50;;;;;;;7.00;6.30;;;18.90;33.80;;;;;;5007636;28;20223;-83
2024/01/11 06:16:16;;;;;;;6.97;6.30;;;18.90;33.80;;;;;;5009794;28;20230;-84
2024/01/11 06:18:41;;;;;;;6.87;6.27;;;18.90;33.80;;;;;;5012313;28;20293;-84
2024/01/11 06:21:07;;;;;;;7.67;6.97;;;18.90;33.80;;;;;;5014521;28;20587;-83
2024/01/11 06:23:32;;;;;;;8.73;7.93;;;18.90;33.80;;;;;;4996269;28;20219;-84
2024/01/11 06:25:58;;;;;;;8.90;6.80;;;18.90;33.80;;;;;;4997217;28;20235;-84
2024/01/11 06:28:24;;;;;;;8.43;6.57;;;18.90;33.80;;;;;;5001627;28;20238;-83
2024/01/11 06:30:49;;;;;;;6.47;5.97;;;18.90;33.80;;;;;;5018467;28;20223;-83
2024/01/11 06:33:15;;;;;;;8.70;7.90;;;18.90;33.80;;;;;;5015718;28;20731;-84
2024/01/11 06:35:40;;;;;;;7.57;6.87;;;18.90;33.80;;;;;;5011879;28;20271;-83
2024/01/11 06:38:06;;;;;;;7.77;7.17;;;18.90;33.80;;;;;;4997784;28;20236;-84
2024/01/11 06:40:31;;;;;;;7.47;6.73;;;18.90;33.70;;;;;;4996487;28;20309;-84
2024/01/11 06:42:57;;;;;;;7.37;6.70;;;18.90;33.80;;;;;;5013588;28;20226;-83
2024/01/11 06:45:23;;;;;;;6.80;6.20;;;18.90;33.80;;;;;;5013403;28;20687;-83
2024/01/11 06:47:48;;;;;;;6.57;6.07;;;18.90;33.80;;;;;;5012755;28;20533;-84
2024/01/11 06:50:14;;;;;;;6.83;6.17;;;18.90;33.80;;;;;;4998523;28;20968;-83
2024/01/11 06:52:40;;;;;;;8.00;6.70;;;18.90;33.80;;;;;;5017975;28;20282;-84
2024/01/11 06:55:06;;;;;;;10.13;6.47;;;18.90;33.80;;;;;;5011002;28;20230;-83
2024/01/11 06:57:31;;;;;;;7.90;7.20;;;18.90;33.80;;;;;;4998367;28;20227;-83
2024/01/11 06:59:57;;;;;;;6.80;6.20;;;18.90;33.80;;;;;;5019396;28;20505;-83
2024/01/11 07:02:22;;;;;;;7.80;7.00;;;18.90;33.80;;;;;;5013508;28;20218;-84
2024/01/11 07:04:48;;;;;;;7.13;6.53;;;18.90;33.80;;;;;;5012077;28;20247;-84
2024/01/11 07:07:13;;;;;;;7.27;6.57;;;18.90;33.80;;;;;;5014247;28;20218;-84
2024/01/11 07:09:39;;;;;;;7.30;6.70;;;18.90;33.80;;;;;;5016830;28;20766;-84
2024/01/11 07:12:05;;;;;;;7.90;7.23;;;18.90;33.70;;;;;;4999094;28;20322;-84
2024/01/11 07:14:30;;;;;;;7.73;7.00;;;18.90;33.70;;;;;;5017045;28;20277;-84
2024/01/11 07:16:56;;;;;;;7.33;6.73;;;18.90;33.70;;;;;;5012952;28;20496;-84
2024/01/11 07:19:22;;;;;;;7.37;6.67;;;18.90;33.80;;;;;;5014058;28;20223;-84
2024/01/11 07:21:47;;;;;;;7.27;6.70;;;18.90;33.70;;;;;;5015154;28;20269;-84
2024/01/11 07:24:13;;;;;;;17.67;7.70;;;18.90;33.70;;;;;;5010965;28;20227;-84
2024/01/11 07:26:39;;;;;;;8.37;7.57;;;18.90;33.70;;;;;;5014985;28;20234;-85
2024/01/11 07:29:04;;;;;;;7.50;6.80;;;18.90;33.70;;;;;;4993842;28;20227;-84
2024/01/11 07:31:30;;;;;;;8.07;7.37;;;18.90;33.70;;;;;;4996014;28;20220;-84
2024/01/11 07:33:55;;;;;;;8.53;7.70;;;18.90;33.70;;;;;;4990803;28;20286;-84
2024/01/11 07:36:21;;;;;;;7.20;6.60;;;18.90;33.70;;;;;;4979989;28;20283;-84
2024/01/11 07:38:48;;;;;;;7.87;7.10;;;18.90;33.60;;;;;;4996878;28;20259;-84
2024/01/11 07:41:13;;;;;;;7.50;6.83;;;18.90;33.60;;;;;;4977746;28;20215;-84
2024/01/11 07:43:40;;;;;;;7.33;6.67;;;18.90;33.60;;;;;;4993833;28;20443;-84
2024/01/11 07:46:07;;;;;;;7.33;6.73;;;18.90;33.60;;;;;;4995975;28;20239;-84
2024/01/11 07:48:32;;;;;;;7.00;6.50;;;18.90;33.60;;;;;;4982374;28;20944;-84
2024/01/11 07:50:59;;;;;;;7.40;6.80;;;18.90;33.60;;;;;;4993587;28;20435;-83
2024/01/11 07:53:25;;;;;;;7.23;6.47;;;18.90;33.60;;;;;;4993092;28;20282;-84
2024/01/11 07:55:51;;;;;;;7.23;6.67;;;18.90;33.50;;;;;;4996034;28;20536;-84
2024/01/11 07:58:17;;;;;;;7.63;7.00;;;18.90;34.30;;;;;;4993732;28;20436;-84
2024/01/11 08:00:42;;;;;;;7.57;6.97;;;18.90;33.50;;;;;;4989287;28;20211;-84
2024/01/11 08:03:08;;;;;;;7.33;6.67;;;18.90;33.50;;;;;;4989619;28;20266;-84
2024/01/11 08:05:34;;;;;;;7.83;7.10;;;18.90;33.50;;;;;;4993157;28;20239;-84
2024/01/11 08:08:02;;;;;;;7.47;6.90;;;18.90;33.50;;;;;;4998544;28;20223;-90
2024/01/11 08:10:28;;;;;;;7.60;6.90;;;18.90;33.50;;;;;;4996176;28;20253;-84
2024/01/11 08:12:53;;;;;;;7.47;6.87;;;18.90;33.50;;;;;;4993974;28;20428;-84
2024/01/11 08:15:20;;;;;;;6.80;6.20;;;18.90;33.50;;;;;;4994974;28;20223;-84
2024/01/11 08:17:45;;;;;;;7.07;6.47;;;18.90;33.50;;;;;;4978606;28;20471;-84
2024/01/11 08:20:11;;;;;;;7.67;6.93;;;18.90;33.60;;;;;;4995769;28;20285;-84
2024/01/11 08:22:43;;;;;;;7.43;6.70;;;18.90;33.50;;;;;;4984595;28;20215;-84
2024/01/11 08:25:09;;;;;;;7.70;7.00;;;18.80;33.40;;;;;;4979224;28;20652;-84
2024/01/11 08:27:35;;;;;;;7.33;6.83;;;18.80;33.40;;;;;;5001184;28;20462;-84
2024/01/11 08:30:02;;;;;;;7.47;6.80;;;18.80;33.40;;;;;;5015511;28;20212;-84
2024/01/11 08:32:28;;;;;;;8.40;7.50;;;18.80;33.40;;;;;;5001817;28;20472;-84
2024/01/11 08:34:54;;;;;;;8.10;7.40;;;18.80;33.40;;;;;;4984369;28;20816;-84
2024/01/11 08:37:19;;;;;;;7.17;6.60;;;18.80;33.40;;;;;;5002377;28;20441;-84
2024/01/11 08:39:46;;;;;;;6.70;6.30;;;18.80;33.40;;;;;;5014769;28;20230;-84
2024/01/11 08:42:11;;;;;;;8.03;7.20;;;18.80;33.40;;;;;;5014804;28;20231;-84
2024/01/11 08:44:44;;;;;;;7.63;6.93;;;18.80;33.40;;;;;;5012223;28;20483;-87
2024/01/11 08:47:10;;;;;;;7.30;6.70;;;18.80;33.40;;;;;;5012625;28;20223;-83
2024/01/11 08:49:39;;;;;;;8.50;6.83;;;18.80;33.40;;;;;;4997234;28;20496;-84
2024/01/11 08:52:05;;;;;;;7.47;6.77;;;18.80;33.40;;;;;;5010733;28;20221;-82
2024/01/11 08:54:32;;;;;;;7.53;6.90;;;18.80;33.40;;;;;;5012970;28;20921;-83
2024/01/11 08:56:58;;;;;;;7.30;6.60;;;18.80;33.30;;;;;;5010935;28;21214;-84
2024/01/11 08:59:25;;;;;;;7.70;6.97;;;18.80;33.30;;;;;;5014685;28;20569;-83
2024/01/11 09:01:51;;;;;;;8.50;7.70;;;18.80;34.10;;;;;;5015193;28;20226;-83
2024/01/11 09:04:17;;;;;;;8.30;7.60;;;18.80;33.30;;;;;;5016552;28;21247;-84
2024/01/11 09:06:43;;;;;;;7.17;6.50;;;18.80;33.40;;;;;;5009136;28;20482;-84
2024/01/11 09:09:10;;;;;;;9.13;7.50;;;18.80;33.30;;;;;;5014707;28;20230;-83
2024/01/11 09:11:36;;;;;;;7.73;7.03;;;18.80;33.30;;;;;;5016561;28;20217;-83
2024/01/11 09:14:02;;;;;;;7.70;6.93;;;18.80;33.30;;;;;;5014029;28;20439;-84
2024/01/11 09:16:28;;;;;;;10.17;8.67;;;18.80;33.40;;;;;;4999961;28;20953;-83
2024/01/11 09:18:54;;;;;;;7.47;6.87;;;18.80;33.30;;;;;;4999111;28;20495;-83
2024/01/11 09:21:19;;;;;;;8.10;7.40;;;18.80;33.30;;;;;;5014980;28;20298;-83
2024/01/11 09:23:45;;;;;;;8.30;7.47;;;18.80;33.30;;;;;;5013547;28;20246;-83
2024/01/11 09:26:10;;;;;;;8.03;7.30;;;18.80;33.30;;;;;;4998269;28;20353;-83
2024/01/11 09:28:36;;;;;;;8.00;7.30;;;18.80;33.30;;;;;;5013912;28;20227;-84
2024/01/11 09:31:02;;;;;;;7.47;6.83;;;18.80;33.30;;;;;;5019385;28;20258;-83
2024/01/11 09:33:28;;;;;;;7.70;7.10;;;18.80;33.30;;;;;;5021174;28;20218;-84
2024/01/11 09:35:56;;;;;;;8.00;7.30;;;18.80;33.30;;;;;;5021059;28;20342;-84
2024/01/11 09:38:22;;;;;;;7.60;7.00;;;18.80;33.30;;;;;;5001475;28;20249;-83
2024/01/11 09:41:02;;;;;;;10.60;8.20;;;18.80;33.30;;;;;;5023252;28;20426;-83
2024/01/11 09:43:28;;;;;;;7.57;6.90;;;18.80;33.40;;;;;;5017771;28;20546;-83
2024/01/11 09:45:55;;;;;;;7.40;6.80;;;18.80;33.30;;;;;;5018798;28;20963;-83
2024/01/11 09:48:21;;;;;;;8.20;7.50;;;18.80;33.40;;;;;;5021032;28;20226;-84
2024/01/11 09:50:47;;;;;;;7.60;6.90;;;18.80;33.30;;;;;;5002724;28;20806;-83
2024/01/11 09:53:14;;;;;;;7.53;6.93;;;18.80;33.30;;;;;;5018155;28;20226;-84
2024/01/11 09:55:39;;;;;;;10.20;7.70;;;18.80;33.40;;;;;;5021003;28;20436;-84
2024/01/11 09:58:06;;;;;;;8.10;7.40;;;18.80;33.30;;;;;;5022534;28;20415;-84
2024/01/11 10:00:32;;;;;;;8.10;7.10;;;18.80;33.30;;;;;;5016980;28;20219;-84
2024/01/11 10:02:58;;;;;;;8.27;7.47;;;18.80;33.30;;;;;;5017348;28;20460;-83
2024/01/11 10:05:23;;;;;;;7.17;6.63;;;18.80;33.30;;;;;;4999907;28;20533;-84
2024/01/11 10:07:50;;;;;;;7.23;6.73;;;18.80;33.30;;;;;;4998396;28;20222;-84
2024/01/11 10:10:15;;;;;;;7.50;6.90;;;18.80;33.30;;;;;;5019563;28;20223;-83
2024/01/11 10:12:41;;;;;;;7.70;7.07;;;18.80;33.30;;;;;;5021638;28;20447;-84
2024/01/11 10:15:09;;;;;;;8.30;7.70;;;18.80;33.30;;;;;;5006446;28;20309;-85
2024/01/11 10:17:45;;;;;;;8.33;7.60;;;18.80;33.30;;;;;;5019836;28;20241;-84
2024/01/11 10:20:13;;;;;;;7.97;7.13;;;18.80;33.40;;;;;;5017110;28;20486;-84
2024/01/11 10:22:43;;;;;;;7.50;6.80;;;18.80;33.30;;;;;;5018843;28;20411;-84
2024/01/11 10:25:13;;;;;;;7.60;6.93;;;18.80;33.40;;;;;;5019992;28;20447;-83
2024/01/11 10:27:43;;;;;;;7.97;7.37;;;18.80;33.30;;;;;;5019972;28;21034;-84
2024/01/11 10:30:15;;;;;;;8.23;7.53;;;18.80;33.30;;;;;;5020201;28;20455;-83
2024/01/11 10:32:41;;;;;;;8.33;7.57;;;18.80;33.30;;;;;;5011514;28;23705;-83
2024/01/11 10:35:07;;;;;;;9.07;8.17;;;18.80;33.30;;;;;;5022615;28;20426;-84
2024/01/11 10:37:33;;;;;;;7.30;6.70;;;18.80;33.30;;;;;;5021795;28;20214;-84
2024/01/11 10:40:15;;;;;;;8.90;8.10;;;18.80;33.30;;;;;;5004597;28;21237;-83
2024/01/11 10:42:52;;;;;;;8.20;7.60;;;18.80;33.30;;;;;;5015118;28;20472;-84
2024/01/11 10:45:19;;;;;;;7.43;6.83;;;18.80;33.30;;;;;;5014977;28;20463;-84
2024/01/11 10:47:53;;;;;;;7.50;6.90;;;18.80;33.30;;;;;;4998700;28;20494;-83
2024/01/11 10:50:19;;;;;;;7.40;6.90;;;18.80;33.30;;;;;;5015953;28;20424;-84
2024/01/11 10:53:02;;;;;;;8.13;7.37;;;18.80;33.30;;;;;;5016419;28;21014;-84
2024/01/11 10:55:30;;;;;;;8.20;7.40;;;18.80;33.30;;;;;;5011555;28;20558;-83
2024/01/11 10:57:58;;;;;;;7.30;6.80;;;18.80;33.20;;;;;;5019301;28;20539;-83
2024/01/11 11:00:24;;;;;;;7.40;6.80;;;18.80;33.30;;;;;;5016914;28;20462;-83
2024/01/11 11:02:51;;;;;;;7.63;7.03;;;18.80;33.30;;;;;;5016113;28;20845;-83
2024/01/11 11:05:19;;;;;;;7.93;7.30;;;18.80;33.20;;;;;;5016228;28;20269;-83
2024/01/11 11:07:46;;;;;;;7.93;7.23;;;18.80;33.20;;;;;;4999202;28;20471;-83
2024/01/11 11:10:12;;;;;;;8.47;7.70;;;18.80;33.30;;;;;;5018447;28;20445;-83
2024/01/11 11:12:40;;;;;;;8.20;7.40;;;18.80;33.20;;;;;;5016905;28;20453;-84
2024/01/11 11:15:07;;;;;;;8.30;7.50;;;18.80;33.20;;;;;;5016410;28;20518;-83
2024/01/11 11:17:33;;;;;;;8.10;7.50;;;18.80;33.30;;;;;;5018138;28;20513;-84
2024/01/11 11:19:59;;;;;;;7.43;6.90;;;18.80;33.10;;;;;;5017772;28;20905;-83
2024/01/11 11:22:27;;;;;;;8.00;7.30;;;18.90;33.20;;;;;;5016911;28;20233;-84
2024/01/11 11:25:10;;;;;;;7.93;7.30;;;18.80;33.20;;;;;;5013635;28;20706;-83
2024/01/11 11:27:38;;;;;;;8.17;7.50;;;18.90;33.20;;;;;;4997286;28;20478;-83
2024/01/11 11:30:05;;;;;;;8.30;7.50;;;18.80;33.20;;;;;;5014325;28;20423;-83
2024/01/11 11:32:39;;;;;;;8.57;7.87;;;18.80;33.20;;;;;;5015165;28;21026;-84
2024/01/11 11:35:05;;;;;;;7.17;6.60;;;18.80;33.20;;;;;;5015296;28;21200;-83
2024/01/11 11:37:34;;;;;;;7.80;7.20;;;18.90;33.20;;;;;;4999542;28;20506;-83
2024/01/11 11:39:59;;;;;;;8.53;7.60;;;18.80;33.20;;;;;;5014845;28;20438;-83
2024/01/11 11:42:26;;;;;;;8.43;7.73;;;18.90;33.20;;;;;;5014788;28;20794;-83
2024/01/11 11:44:52;;;;;;;7.67;7.03;;;18.80;33.20;;;;;;4997055;28;20329;-83
2024/01/11 11:47:22;;;;;;;8.10;7.40;;;18.80;33.20;;;;;;5017905;28;20502;-83
2024/01/11 11:50:09;;;;;;;7.93;7.23;;;18.90;33.30;;;;;;5001213;28;20297;-84
2024/01/11 11:52:38;;;;;;;8.10;7.37;;;18.90;33.20;;;;;;5016800;28;20419;-83
2024/01/11 11:55:06;;;;;;;7.70;7.10;;;18.80;33.20;;;;;;5016190;28;20435;-83
2024/01/11 11:57:32;;;;;;;7.57;6.97;;;18.80;33.20;;;;;;5015861;28;20448;-84
2024/01/11 11:59:59;;;;;;;8.20;7.50;;;18.90;33.20;;;;;;5012299;28;20474;-83
2024/01/11 12:02:26;;;;;;;7.63;6.93;;;18.90;33.20;;;;;;5014930;28;20415;-83
2024/01/11 12:04:52;;;;;;;7.53;6.83;;;18.90;33.20;;;;;;5012569;28;20486;-83
2024/01/11 12:07:18;;;;;;;8.67;7.27;;;18.90;33.20;;;;;;5015990;28;20452;-84
2024/01/11 12:09:43;;;;;;;7.90;7.20;;;18.90;34.00;;;;;;5012236;28;20460;-84
2024/01/11 12:12:09;;;;;;;7.83;7.13;;;18.90;33.30;;;;;;5004445;28;20873;-85
2024/01/11 12:14:35;;;;;;;7.90;7.10;;;18.90;33.20;;;;;;4994830;28;20300;-84
2024/01/11 12:17:01;;;;;;;8.37;7.67;;;18.90;33.20;;;;;;5015601;28;20218;-84
2024/01/11 12:19:28;;;;;;;8.40;7.73;;;18.90;33.20;;;;;;5015721;28;20434;-85
2024/01/11 12:21:54;;;;;;;7.73;6.93;;;18.90;33.20;;;;;;5015229;28;20222;-85
2024/01/11 12:24:22;;;;;;;8.80;8.00;;;18.90;33.30;;;;;;5013428;28;20522;-85
2024/01/11 12:26:50;;;;;;;8.87;8.07;;;18.90;33.30;;;;;;5013901;28;20473;-84
2024/01/11 12:29:18;;;;;;;7.77;7.07;;;18.90;33.20;;;;;;5016111;28;20444;-84
2024/01/11 12:31:44;;;;;;;7.60;6.80;;;18.90;33.30;;;;;;5015925;28;20551;-84
2024/01/11 12:34:11;;;;;;;8.30;7.60;;;18.90;33.30;;;;;;5012554;28;20539;-84
2024/01/11 12:36:37;;;;;;;7.30;6.80;;;18.90;33.30;;;;;;4993100;28;20475;-84
2024/01/11 12:39:06;;;;;;;7.83;7.13;;;18.90;33.30;;;;;;4999197;28;20461;-84
2024/01/11 12:41:32;;;;;;;8.03;7.33;;;18.90;33.50;;;;;;5011334;28;21140;-84